Highland Park, Louisiana
Current Conditions -  °F | °C
As of 4:53 PM on Thursday 23 Oct 2014 (Local Time) from KMLU Reporting Station
Clear Clear  
Wind Chill: 17°   Ceiling: Unl
Heat Index: 17°   Visibility: 10mi
Dew Point: 11°   Wind: 9mph
Humidity: 65%   Direction: 340°NNW
Pressure: 30.13"   Gusts: NA
Location:  32.5473°N, 92.2007°W
Report Text: KMLU 232153Z 34008KT 10SM CLR 17/11 A3013 RMK AO2 SLPNO T01720106
Loading
Personal Weather Stations






























Interactive Weather Map
Tropical Storm Tracking
New forecast layout! Learn more

10-Day Weather Forecast

Advertisements
Track Severe Weather on mobile